Terminal Aerodrome Forecast
Issued by NWS

Current Version | Previous Version | Text Only | Print | Product List | Glossary Off
Versions: 1 2 3 4 5 6 7 8 9 10 11 12 13 14 15 16 17 18 19 20 21 22 23 24 25 26 27 28 29 30 31 32 33 34 35 36 37 38 39 40

000
FTUS41 KRNK 181139
TAFLWB
TAF
KLWB 181139Z 1812/1912 00000KT 4SM -RA BR SCT001 OVC060
     FM181400 22004KT 3SM RA BR SCT002 OVC035
      TEMPO 1814/1818 2SM TSRA OVC025CB
     FM181800 22008KT 6SM -SHRA BR BKN015 OVC025
     FM190000 21001KT P6SM BKN050
     FM190500 26001KT 1/4SM FG OVC001=

USA.gov is the U.S. government's official web portal to all federal, state and local government web resources and services.